createdAt,value
2018-05-01T00:02:27.539Z,100012.52
2018-05-01T00:04:56.657Z,100024.05
2018-05-01T00:07:26.762Z,100011.73
2018-05-01T00:09:57.430Z,100017.34
2018-05-01T00:12:26.298Z,100024.73
2018-05-01T00:15:00.493Z,100011.62
2018-05-01T00:17:31.935Z,100024.98
2018-05-01T00:20:00.962Z,100023.84
2018-05-01T00:22:30.273Z,100027.09
2018-05-01T00:25:00.022Z,100010.83
2018-05-01T00:27:29.176Z,100023.45
2018-05-01T00:29:58.614Z,100032.33
2018-05-01T00:32:29.544Z,100033.02
2018-05-01T00:34:58.705Z,100038.27
2018-05-01T00:37:28.344Z,100049.51
2018-05-01T00:39:57.718Z,100061.34
2018-05-01T00:42:28.670Z,100059.30
2018-05-01T00:44:58.424Z,100061.55
2018-05-01T00:47:29.340Z,100078.48
2018-05-01T00:49:58.750Z,100068.58
2018-05-01T00:52:48.826Z,100082.48
2018-05-01T00:55:19.107Z,100081.31
2018-05-01T00:57:49.759Z,100081.53
2018-05-01T01:00:20.727Z,100088.67
2018-05-01T01:02:51.423Z,100086.34
2018-05-01T01:05:20.600Z,100080.74
2018-05-01T01:07:51.118Z,100094.54
2018-05-01T01:10:20.501Z,100091.71
2018-05-01T01:12:51.364Z,100100.63
2018-05-01T01:15:22.355Z,100108.13
2018-05-01T01:17:53.058Z,100109.13
2018-05-01T01:20:21.976Z,100105.83
2018-05-01T01:22:51.132Z,100114.39
2018-05-01T01:25:21.588Z,100125.41
2018-05-01T01:27:52.489Z,100127.61
2018-05-01T01:30:23.631Z,100118.83
2018-05-01T01:32:54.271Z,100133.95
2018-05-01T01:35:21.792Z,100135.57
2018-05-01T01:37:49.536Z,100137.94
2018-05-01T01:40:17.840Z,100143.03
2018-05-01T01:42:46.915Z,100157.19
2018-05-01T01:45:14.440Z,100149.44
2018-05-01T01:47:42.205Z,100168.36
2018-05-01T01:50:09.761Z,100159.36
2018-05-01T01:52:37.337Z,100170.06
2018-05-01T01:55:04.849Z,100174.62
2018-05-01T01:57:34.094Z,100163.32
2018-05-01T02:00:03.406Z,100176.30
2018-05-01T02:02:32.500Z,100180.60
2018-05-01T02:05:00.008Z,100181.72
2018-05-01T02:07:29.242Z,100181.61
2018-05-01T02:09:56.784Z,100178.05
2018-05-01T02:12:26.613Z,100196.30
2018-05-01T02:14:54.784Z,100196.83
2018-05-01T02:17:23.048Z,100201.66
2018-05-01T02:19:50.583Z,100207.06
2018-05-01T02:22:19.760Z,100213.53
2018-05-01T02:24:49.493Z,100219.47
2018-05-01T02:27:19.056Z,100214.63
2018-05-01T02:29:47.458Z,100213.37
2018-05-01T02:32:14.930Z,100208.89
2018-05-01T02:34:43.313Z,100203.70
2018-05-01T02:37:11.621Z,100218.03
2018-05-01T02:39:40.918Z,100233.48
2018-05-01T02:42:08.677Z,100237.84
2018-05-01T02:44:37.677Z,100245.77
2018-05-01T02:47:05.424Z,100240.55
2018-05-01T02:49:33.204Z,100246.75
2018-05-01T02:52:01.246Z,100245.34
2018-05-01T02:54:28.971Z,100248.07
2018-05-01T02:56:58.060Z,100262.70
2018-05-01T02:59:27.164Z,100246.16
2018-05-01T03:01:55.641Z,100280.23
2018-05-01T03:04:23.351Z,100269.55
2018-05-01T03:06:51.134Z,100277.52
2018-05-01T03:09:19.437Z,100289.00
2018-05-01T03:11:48.812Z,100285.53
2018-05-01T03:14:16.378Z,100288.27
2018-05-01T03:16:44.096Z,100295.33
2018-05-01T03:19:11.847Z,100293.96
2018-05-01T03:21:41.682Z,100309.75
2018-05-01T03:24:09.392Z,100318.37
2018-05-01T03:26:38.758Z,100308.95
2018-05-01T03:29:06.310Z,100318.75
2018-05-01T03:31:35.618Z,100321.70
2018-05-01T03:34:04.770Z,100336.41
2018-05-01T03:36:32.516Z,100332.44
2018-05-01T03:39:00.341Z,100338.47
2018-05-01T03:41:27.761Z,100337.67
2018-05-01T03:43:55.289Z,100340.25
2018-05-01T03:46:22.842Z,100350.80
2018-05-01T03:48:51.138Z,100365.74
2018-05-01T03:51:20.427Z,100363.03
2018-05-01T03:53:48.403Z,100370.66
2018-05-01T03:56:17.388Z,100382.59
2018-05-01T03:58:47.266Z,100371.12
2018-05-01T04:01:15.035Z,100386.27
2018-05-01T04:03:42.556Z,100387.72
2018-05-01T04:06:10.019Z,100400.52
2018-05-01T04:08:39.350Z,100402.63
2018-05-01T04:11:07.053Z,100405.89
2018-05-01T04:13:35.106Z,100423.75
2018-05-01T04:16:04.321Z,100417.19
2018-05-01T04:18:31.843Z,100426.22
2018-05-01T04:20:59.754Z,100431.01
2018-05-01T04:23:27.347Z,100446.76
2018-05-01T04:25:54.856Z,100453.45
2018-05-01T04:28:22.427Z,100463.27
2018-05-01T04:30:50.117Z,100454.48
2018-05-01T04:33:17.833Z,100463.44
2018-05-01T04:35:47.266Z,100477.53
2018-05-01T04:38:16.489Z,100483.91
2018-05-01T04:40:44.783Z,100471.61
2018-05-01T04:43:12.600Z,100488.66
2018-05-01T04:45:40.204Z,100490.41
2018-05-01T04:48:09.502Z,100506.39
2018-05-01T04:50:37.879Z,100513.67
2018-05-01T04:53:07.227Z,100509.91
2018-05-01T04:55:34.775Z,100514.22
2018-05-01T04:58:03.992Z,100515.83
2018-05-01T05:00:31.745Z,100510.20
2018-05-01T05:02:59.883Z,100528.66
2018-05-01T05:05:29.331Z,100521.92
2018-05-01T05:07:58.363Z,100535.92
2018-05-01T05:10:26.072Z,100559.25
2018-05-01T05:12:53.697Z,100553.78
2018-05-01T05:15:22.793Z,100565.05
2018-05-01T05:17:51.900Z,100568.94
2018-05-01T05:20:19.476Z,100583.79
2018-05-01T05:22:47.251Z,100582.06
2018-05-01T05:25:14.794Z,100576.90
2018-05-01T05:27:42.354Z,100581.97
2018-05-01T05:30:09.912Z,100602.80
2018-05-01T05:32:39.165Z,100602.59
2018-05-01T05:35:06.782Z,100608.05
2018-05-01T05:37:35.942Z,100609.83
2018-05-01T05:40:04.967Z,100618.34
2018-05-01T05:42:34.464Z,100619.98
2018-05-01T05:45:03.727Z,100627.40
2018-05-01T05:47:32.843Z,100634.80
2018-05-01T05:50:00.750Z,100628.79
2018-05-01T05:52:28.376Z,100650.09
2018-05-01T05:54:57.451Z,100661.73
2018-05-01T05:57:27.127Z,100654.63
2018-05-01T05:59:55.449Z,100665.39
2018-05-01T06:02:23.170Z,100670.38
2018-05-01T06:04:50.931Z,100671.61
2018-05-01T06:07:20.195Z,100684.53
2018-05-01T06:09:47.962Z,100678.00
2018-05-01T06:12:17.061Z,100682.03
2018-05-01T06:14:46.340Z,100682.16
2018-05-01T06:17:15.407Z,100693.59
2018-05-01T06:19:43.531Z,100688.85
2018-05-01T06:22:12.723Z,100694.91
2018-05-01T06:24:42.387Z,100704.56
2018-05-01T06:27:10.101Z,100705.92
2018-05-01T06:29:39.174Z,100704.22
2018-05-01T06:32:06.923Z,100709.64
2018-05-01T06:34:35.037Z,100719.09
2018-05-01T06:37:04.030Z,100727.27
2018-05-01T06:39:31.577Z,100729.65
2018-05-01T06:42:01.174Z,100729.61
2018-05-01T06:44:28.887Z,100730.67
2018-05-01T06:46:58.003Z,100744.91
2018-05-01T06:49:27.335Z,100740.83
2018-05-01T06:51:55.476Z,100754.65
2018-05-01T06:54:24.584Z,100756.81
2018-05-01T06:56:52.417Z,100760.53
2018-05-01T06:59:19.928Z,100763.72
2018-05-01T07:01:47.371Z,100758.51
2018-05-01T07:04:16.620Z,100769.86
2018-05-01T07:06:45.678Z,100772.53
2018-05-01T07:09:13.198Z,100771.86
2018-05-01T07:11:40.964Z,100775.80
2018-05-01T07:14:09.241Z,100775.71
2018-05-01T07:16:36.944Z,100788.00
2018-05-01T07:19:04.712Z,100787.03
2018-05-01T07:21:32.947Z,100792.87
2018-05-01T07:24:02.229Z,100796.09
2018-05-01T07:26:30.000Z,100804.45
2018-05-01T07:28:59.292Z,100806.66
2018-05-01T07:31:28.314Z,100817.89
2018-05-01T07:33:56.103Z,100820.17
2018-05-01T07:36:25.193Z,100815.68
2018-05-01T07:38:53.067Z,100829.67
2018-05-01T07:41:20.710Z,100824.16
2018-05-01T07:43:50.015Z,100831.92
2018-05-01T07:46:17.765Z,100838.98
2018-05-01T07:48:46.036Z,100843.41
2018-05-01T07:51:15.340Z,100841.02
2018-05-01T07:53:44.646Z,100851.92
2018-05-01T07:56:14.290Z,100852.59
2018-05-01T07:58:43.407Z,100851.33
2018-05-01T08:01:12.760Z,100858.55
2018-05-01T08:03:42.374Z,100858.99
2018-05-01T08:06:10.001Z,100873.83
2018-05-01T08:08:39.300Z,100882.38
2018-05-01T08:11:07.100Z,100878.39
2018-05-01T08:13:34.722Z,100886.95
2018-05-01T08:16:02.517Z,100893.49
2018-05-01T08:18:32.133Z,100892.73
2018-05-01T08:21:00.098Z,100892.27
2018-05-01T08:23:29.129Z,100895.47
2018-05-01T08:25:58.253Z,100899.84
2018-05-01T08:28:27.701Z,100895.14
2018-05-01T08:30:56.827Z,100904.78
2018-05-01T08:33:25.957Z,100903.38
2018-05-01T08:35:53.962Z,100912.77
2018-05-01T08:38:22.907Z,100923.69
2018-05-01T08:40:52.197Z,100927.81
2018-05-01T08:43:19.376Z,100929.66
2018-05-01T08:45:48.750Z,100924.58
2018-05-01T08:48:17.071Z,100930.69
2018-05-01T08:50:47.074Z,100943.59
2018-05-01T08:53:15.415Z,100942.78
2018-05-01T08:55:45.567Z,100936.83
2018-05-01T08:58:13.965Z,100936.84
2018-05-01T09:00:41.596Z,100944.55
2018-05-01T09:03:09.999Z,100942.80
2018-05-01T09:05:39.463Z,100952.39
2018-05-01T09:08:07.048Z,100956.31
2018-05-01T09:10:35.509Z,100959.68
2018-05-01T09:13:04.945Z,100946.44
2018-05-01T09:15:34.261Z,100956.89
2018-05-01T09:18:02.200Z,100956.22
2018-05-01T09:20:31.105Z,100960.44
2018-05-01T09:22:59.437Z,100964.47
2018-05-01T09:25:27.074Z,100948.28
2018-05-01T09:27:56.478Z,100967.14
2018-05-01T09:30:24.879Z,100971.95
2018-05-01T09:32:54.018Z,100958.02
2018-05-01T09:35:21.593Z,100974.73
2018-05-01T09:37:49.387Z,100974.78
2018-05-01T09:40:18.724Z,100984.36
2018-05-01T09:42:46.516Z,100985.07
2018-05-01T09:45:15.926Z,101005.03
2018-05-01T09:47:44.392Z,100997.81
2018-05-01T09:50:12.766Z,101001.72
2018-05-01T09:52:42.692Z,101005.22
2018-05-01T09:55:12.937Z,101006.87
2018-05-01T09:57:43.838Z,101002.16
2018-05-01T10:00:26.884Z,101007.92
2018-05-01T10:02:57.295Z,101013.63
2018-05-01T10:05:26.547Z,101015.94
2018-05-01T10:07:57.837Z,101005.59
2018-05-01T10:10:29.392Z,101017.02
2018-05-01T10:13:00.304Z,101032.25
2018-05-01T10:15:29.628Z,101031.80
2018-05-01T10:17:59.542Z,101031.48
2018-05-01T10:20:29.455Z,101032.27
2018-05-01T10:23:00.703Z,101040.16
2018-05-01T10:25:31.544Z,101044.09
2018-05-01T10:28:03.790Z,101050.15
2018-05-01T10:30:34.082Z,101050.36
2018-05-01T10:33:05.496Z,101047.89
2018-05-01T10:35:36.140Z,101055.89
2018-05-01T10:38:07.140Z,101051.80
2018-05-01T10:40:38.592Z,101062.06
2018-05-01T10:43:09.960Z,101054.66
2018-05-01T10:45:42.092Z,101067.41
2018-05-01T10:48:12.203Z,101063.99
2018-05-01T10:50:42.700Z,101074.89
2018-05-01T10:53:13.937Z,101075.14
2018-05-01T10:55:44.587Z,101072.43
2018-05-01T10:58:14.040Z,101080.61
2018-05-01T11:00:45.507Z,101070.92
2018-05-01T11:03:16.181Z,101086.52
2018-05-01T11:05:47.052Z,101091.34
2018-05-01T11:08:18.104Z,101087.70
2018-05-01T11:10:47.086Z,101085.52
2018-05-01T11:13:18.102Z,101094.24
2018-05-01T11:15:47.443Z,101096.00
2018-05-01T11:18:17.048Z,101100.16
2018-05-01T11:20:46.329Z,101095.14
2018-05-01T11:23:17.399Z,101102.84
2018-05-01T11:25:48.285Z,101102.73
2018-05-01T11:28:19.590Z,101102.55
2018-05-01T11:30:51.317Z,101111.61
2018-05-01T11:33:21.472Z,101120.19
2018-05-01T11:35:50.711Z,101118.94
2018-05-01T11:38:22.081Z,101120.66
2018-05-01T11:40:53.109Z,101123.08
2018-05-01T11:43:23.906Z,101117.16
2018-05-01T11:45:53.198Z,101133.16
2018-05-01T11:48:22.520Z,101132.88
2018-05-01T11:50:53.925Z,101152.42
2018-05-01T11:53:24.661Z,101166.05
2018-05-01T11:55:54.219Z,101160.54
2018-05-01T11:58:23.729Z,101161.38
2018-05-01T12:00:54.440Z,101166.80
2018-05-01T12:03:25.118Z,101161.51
2018-05-01T12:05:56.685Z,101167.95
2018-05-01T12:08:27.707Z,101168.63
2018-05-01T12:10:58.297Z,101165.37
2018-05-01T12:13:29.675Z,101168.66
2018-05-01T12:15:58.892Z,101175.23
2018-05-01T12:18:28.694Z,101184.94
2018-05-01T12:20:58.069Z,101189.61
2018-05-01T12:23:28.891Z,101180.13
2018-05-01T12:25:58.850Z,101183.63
2018-05-01T12:28:29.225Z,101195.94
2018-05-01T12:31:00.649Z,101197.95
2018-05-01T12:33:29.912Z,101192.92
2018-05-01T12:35:59.130Z,101197.33
2018-05-01T12:38:30.165Z,101200.80
2018-05-01T12:40:59.650Z,101202.98
2018-05-01T12:43:28.655Z,101210.77
2018-05-01T12:45:59.266Z,101202.51
2018-05-01T12:48:28.521Z,101209.25
2018-05-01T12:50:57.762Z,101209.42
2018-05-01T12:53:28.049Z,101209.02
2018-05-01T12:55:59.004Z,101221.55
2018-05-01T12:58:28.152Z,101211.94
2018-05-01T13:00:57.701Z,101217.03
2018-05-01T13:03:28.878Z,101226.34
2018-05-01T13:05:58.105Z,101222.17
2018-05-01T13:08:28.380Z,101227.07
2018-05-01T13:10:57.614Z,101230.20
2018-05-01T13:13:28.535Z,101228.99
2018-05-01T13:15:59.976Z,101229.03
2018-05-01T13:18:29.313Z,101230.20
2018-05-01T13:21:00.300Z,101239.36
2018-05-01T13:23:34.601Z,101219.52
2018-05-01T13:26:04.523Z,101221.70
2018-05-01T13:28:35.409Z,101215.98
2018-05-01T13:31:07.535Z,101216.55
2018-05-01T13:33:37.319Z,101223.28
2018-05-01T13:36:08.171Z,101224.41
2018-05-01T13:38:37.406Z,101220.20
2018-05-01T13:41:08.892Z,101230.56
2018-05-01T13:43:38.395Z,101222.95
2018-05-01T13:46:08.148Z,101217.35
2018-05-01T13:48:39.648Z,101231.95
2018-05-01T13:51:09.156Z,101227.42
2018-05-01T13:53:38.450Z,101225.59
2018-05-01T13:56:09.471Z,101233.51
2018-05-01T13:58:40.651Z,101232.50
2018-05-01T14:01:11.713Z,101231.39
2018-05-01T14:03:41.389Z,101240.75
2018-05-01T14:06:10.652Z,101244.82
2018-05-01T14:08:41.453Z,101236.78
2018-05-01T14:11:11.937Z,101240.31
2018-05-01T14:13:42.039Z,101240.51
2018-05-01T14:16:12.951Z,101243.10
2018-05-01T14:18:42.709Z,101245.03
2018-05-01T14:21:14.187Z,101242.32
2018-05-01T14:23:43.420Z,101243.02
2018-05-01T14:26:14.085Z,101241.59
2018-05-01T14:28:43.865Z,101245.62
2018-05-01T14:31:13.587Z,101253.80
2018-05-01T14:33:44.495Z,101245.95
2018-05-01T14:36:15.207Z,101256.59
2018-05-01T14:38:46.124Z,101250.77
2018-05-01T14:41:16.919Z,101255.62
2018-05-01T14:43:47.748Z,101251.06
2018-05-01T14:46:17.210Z,101245.58
2018-05-01T14:48:48.262Z,101257.03
2018-05-01T14:51:18.465Z,101263.50
2018-05-01T14:53:50.551Z,101263.91
2018-05-01T14:56:20.654Z,101263.64
2018-05-01T14:58:50.127Z,101254.95
2018-05-01T15:01:21.201Z,101263.43
2018-05-01T15:03:52.003Z,101263.41
2018-05-01T15:06:22.907Z,101266.14
2018-05-01T15:08:52.210Z,101256.80
2018-05-01T15:11:20.846Z,101255.89
2018-05-01T15:13:52.160Z,101252.42
2018-05-01T15:16:21.278Z,101265.45
2018-05-01T15:18:50.693Z,101258.06
2018-05-01T15:21:21.151Z,101270.74
2018-05-01T15:23:51.212Z,101274.39
2018-05-01T15:26:20.404Z,101281.16
2018-05-01T15:28:51.216Z,101273.42
2018-05-01T15:31:22.017Z,101277.91
2018-05-01T15:33:51.482Z,101271.10
2018-05-01T15:36:21.273Z,101281.97
2018-05-01T15:38:50.630Z,101284.72
2018-05-01T15:41:20.086Z,101280.93
2018-05-01T15:43:49.408Z,101277.14
2018-05-01T15:46:21.153Z,101280.42
2018-05-01T15:48:50.146Z,101280.23
2018-05-01T15:51:20.355Z,101278.65
2018-05-01T15:53:50.797Z,101277.73
2018-05-01T15:56:22.026Z,101284.51
2018-05-01T15:58:52.035Z,101284.15
2018-05-01T16:01:21.441Z,101281.30
2018-05-01T16:03:52.314Z,101283.94
2018-05-01T16:06:22.808Z,101288.63
2018-05-01T16:08:52.338Z,101286.03
2018-05-01T16:11:23.118Z,101285.81
2018-05-01T16:13:52.424Z,101286.33
2018-05-01T16:16:22.179Z,101289.20
2018-05-01T16:18:51.401Z,101286.17
2018-05-01T16:21:22.161Z,101289.93
2018-05-01T16:23:52.023Z,101290.05
2018-05-01T16:26:21.446Z,101289.03
2018-05-01T16:28:51.887Z,101284.03
2018-05-01T16:31:21.453Z,101287.21
2018-05-01T16:33:53.139Z,101288.06
2018-05-01T16:36:24.450Z,101288.58
2018-05-01T16:38:53.994Z,101284.75
2018-05-01T16:41:24.892Z,101287.04
2018-05-01T16:43:54.318Z,101285.00
2018-05-01T16:46:23.686Z,101289.58
2018-05-01T16:48:53.122Z,101281.55
2018-05-01T16:51:23.867Z,101280.98
2018-05-01T16:53:54.779Z,101282.19
2018-05-01T16:56:26.436Z,101283.70
2018-05-01T16:58:55.317Z,101277.66
2018-05-01T17:01:24.862Z,101273.96
2018-05-01T17:03:55.869Z,101273.34
2018-05-01T17:06:24.983Z,101273.53
2018-05-01T17:08:54.289Z,101269.55
2018-05-01T17:11:25.202Z,101268.66
2018-05-01T17:13:54.897Z,101273.59
2018-05-01T17:16:26.197Z,101273.61
2018-05-01T17:18:55.115Z,101263.95
2018-05-01T17:21:25.279Z,101269.91
2018-05-01T17:23:54.778Z,101268.51
2018-05-01T17:26:24.691Z,101262.78
2018-05-01T17:28:54.068Z,101265.02
2018-05-01T17:31:23.504Z,101264.04
2018-05-01T17:33:54.360Z,101264.85
2018-05-01T17:36:24.360Z,101263.10
2018-05-01T17:38:56.120Z,101264.11
2018-05-01T17:41:26.638Z,101261.17
2018-05-01T17:43:58.049Z,101263.69
2018-05-01T17:46:27.303Z,101257.90
2018-05-01T17:48:58.196Z,101267.19
2018-05-01T17:51:29.097Z,101265.72
2018-05-01T17:53:58.581Z,101265.29
2018-05-01T17:56:28.337Z,101261.66
2018-05-01T17:58:59.236Z,101264.14
2018-05-01T18:01:29.075Z,101266.16
2018-05-01T18:03:58.603Z,101268.22
2018-05-01T18:06:29.974Z,101265.62
2018-05-01T18:09:00.625Z,101267.26
2018-05-01T18:11:31.317Z,101270.34
2018-05-01T18:14:02.139Z,101265.13
2018-05-01T18:16:32.218Z,101267.78
2018-05-01T18:19:01.472Z,101268.14
2018-05-01T18:21:31.437Z,101268.37
2018-05-01T18:24:00.645Z,101274.11
2018-05-01T18:26:30.145Z,101269.40
2018-05-01T18:29:00.007Z,101261.38
2018-05-01T18:31:29.870Z,101263.25
2018-05-01T18:34:01.372Z,101266.08
2018-05-01T18:36:32.050Z,101271.34
2018-05-01T18:39:02.082Z,101270.80
2018-05-01T18:41:31.621Z,101275.65
2018-05-01T18:44:00.803Z,101274.92
2018-05-01T18:46:31.628Z,101273.81
2018-05-01T18:49:00.863Z,101278.94
2018-05-01T18:51:30.225Z,101279.91
2018-05-01T18:54:00.465Z,101278.55
2018-05-01T18:56:31.269Z,101280.29
2018-05-01T18:59:00.387Z,101281.23
2018-05-01T19:01:30.132Z,101276.51
2018-05-01T19:04:01.244Z,101283.97
2018-05-01T19:06:32.080Z,101287.36
2018-05-01T19:09:03.390Z,101288.27
2018-05-01T19:11:32.413Z,101284.23
2018-05-01T19:14:03.036Z,101283.07
2018-05-01T19:16:33.806Z,101285.88
2018-05-01T19:19:04.951Z,101289.31
2018-05-01T19:21:35.563Z,101291.17
2018-05-01T19:24:06.546Z,101287.94
2018-05-01T19:26:37.527Z,101286.96
2018-05-01T19:29:09.504Z,101290.14
2018-05-01T19:31:38.879Z,101287.63
2018-05-01T19:34:10.257Z,101288.42
2018-05-01T19:36:42.063Z,101286.34
2018-05-01T19:39:10.981Z,101288.50
2018-05-01T19:41:42.499Z,101289.41
2018-05-01T19:44:12.868Z,101282.79
2018-05-01T19:46:43.775Z,101284.61
2018-05-01T19:49:13.369Z,101286.12
2018-05-01T19:51:42.745Z,101288.95
2018-05-01T19:54:12.546Z,101286.25
2018-05-01T19:56:41.506Z,101293.19
2018-05-01T19:59:12.197Z,101286.38
2018-05-01T20:01:41.494Z,101292.39
2018-05-01T20:04:11.311Z,101290.32
2018-05-01T20:06:42.775Z,101288.67
2018-05-01T20:09:11.957Z,101291.80
2018-05-01T20:11:42.712Z,101296.12
2018-05-01T20:14:12.233Z,101295.95
2018-05-01T20:16:43.285Z,101301.36
2018-05-01T20:19:13.737Z,101301.79
2018-05-01T20:21:43.133Z,101305.43
2018-05-01T20:24:14.013Z,101306.22
2018-05-01T20:26:45.520Z,101302.55
2018-05-01T20:29:16.190Z,101308.92
2018-05-01T20:31:45.852Z,101311.17
2018-05-01T20:34:17.186Z,101311.87
2018-05-01T20:36:47.869Z,101311.30
2018-05-01T20:39:18.631Z,101307.83
2018-05-01T20:41:47.831Z,101305.95
2018-05-01T20:44:18.473Z,101306.78
2018-05-01T20:46:49.698Z,101309.97
2018-05-01T20:49:18.763Z,101312.91
2018-05-01T20:51:49.669Z,101319.28
2018-05-01T20:54:19.628Z,101315.33
2018-05-01T20:56:50.370Z,101311.11
2018-05-01T20:59:21.412Z,101310.02
2018-05-01T21:01:52.237Z,101311.83
2018-05-01T21:04:21.305Z,101304.82
2018-05-01T21:06:51.924Z,101306.80
2018-05-01T21:09:21.095Z,101305.16
2018-05-01T21:11:51.750Z,101308.56
2018-05-01T21:14:22.697Z,101306.17
2018-05-01T21:16:52.798Z,101306.09
2018-05-01T21:19:21.827Z,101310.98
2018-05-01T21:21:50.928Z,101309.30
2018-05-01T21:24:20.320Z,101307.80
2018-05-01T21:26:50.230Z,101313.02
2018-05-01T21:29:20.132Z,101308.80
2018-05-01T21:31:49.304Z,101311.67
2018-05-01T21:34:18.094Z,101315.12
2018-05-01T21:36:48.696Z,101312.38
2018-05-01T21:39:18.051Z,101307.08
2018-05-01T21:41:47.963Z,101306.87
2018-05-01T21:44:17.111Z,101302.91
2018-05-01T21:46:46.326Z,101308.56
2018-05-01T21:49:16.778Z,101304.56
2018-05-01T21:51:45.612Z,101307.45
2018-05-01T21:54:16.926Z,101311.56
2018-05-01T21:56:47.644Z,101311.73
2018-05-01T21:59:18.381Z,101313.50
2018-05-01T22:01:48.187Z,101314.38
2018-05-01T22:04:19.156Z,101312.83
2018-05-01T22:06:48.013Z,101312.28
2018-05-01T22:09:17.837Z,101311.77
2018-05-01T22:11:48.585Z,101314.22
2018-05-01T22:14:19.453Z,101312.51
2018-05-01T22:16:50.762Z,101309.64
2018-05-01T22:19:20.116Z,101312.81
2018-05-01T22:21:49.295Z,101305.59
2018-05-01T22:24:18.690Z,101314.44
2018-05-01T22:26:49.297Z,101314.78
2018-05-01T22:29:21.460Z,101311.76
2018-05-01T22:31:52.214Z,101319.23
2018-05-01T22:34:21.738Z,101326.41
2018-05-01T22:36:52.620Z,101322.41
2018-05-01T22:39:21.835Z,101321.98
2018-05-01T22:41:52.667Z,101324.81
2018-05-01T22:44:21.454Z,101328.32
2018-05-01T22:46:52.185Z,101330.56
2018-05-01T22:49:22.776Z,101319.29
2018-05-01T22:51:52.385Z,101332.00
2018-05-01T22:54:21.260Z,101328.78
2018-05-01T22:56:52.219Z,101325.64
2018-05-01T22:59:23.085Z,101324.25
2018-05-01T23:01:53.597Z,101324.76
2018-05-01T23:04:25.591Z,101328.05
2018-05-01T23:06:56.515Z,101325.34
2018-05-01T23:09:28.471Z,101323.98
2018-05-01T23:11:57.806Z,101329.13
2018-05-01T23:14:27.246Z,101327.16
2018-05-01T23:16:56.631Z,101328.94
2018-05-01T23:19:27.511Z,101326.92
2018-05-01T23:21:57.419Z,101329.41
2018-05-01T23:24:28.426Z,101329.86
2018-05-01T23:26:59.403Z,101334.20
2018-05-01T23:29:30.065Z,101338.38
2018-05-01T23:31:59.574Z,101331.41
2018-05-01T23:34:29.384Z,101329.70
2018-05-01T23:37:00.099Z,101327.53
2018-05-01T23:39:30.157Z,101329.68
2018-05-01T23:42:01.103Z,101333.27
2018-05-01T23:44:31.737Z,101324.51
2018-05-01T23:47:02.000Z,101334.03
2018-05-01T23:49:31.295Z,101332.19
2018-05-01T23:52:02.155Z,101325.09
2018-05-01T23:54:33.403Z,101332.19
2018-05-01T23:57:03.214Z,101323.82
2018-05-01T23:59:34.123Z,101326.34
